sensor_id;sensor_type;location;lat;lon;timestamp;pressure;altitude;pressure_sealevel;temperature;humidity
70684;BME280;58263;48.146;11.440;2022-12-18T00:00:59;96679.13;;;-2.95;75.47
70684;BME280;58263;48.146;11.440;2022-12-18T00:03:25;96671.25;;;-2.95;75.03
70684;BME280;58263;48.146;11.440;2022-12-18T00:05:51;96669.00;;;-3.11;75.52
70684;BME280;58263;48.146;11.440;2022-12-18T00:08:17;96666.13;;;-2.97;74.97
70684;BME280;58263;48.146;11.440;2022-12-18T00:10:44;96671.00;;;-2.92;74.79
70684;BME280;58263;48.146;11.440;2022-12-18T00:13:10;96669.00;;;-3.00;74.82
70684;BME280;58263;48.146;11.440;2022-12-18T00:15:37;96677.72;;;-2.99;74.77
70684;BME280;58263;48.146;11.440;2022-12-18T00:18:03;96664.38;;;-3.08;75.36
70684;BME280;58263;48.146;11.440;2022-12-18T00:20:28;96668.75;;;-3.08;75.43
70684;BME280;58263;48.146;11.440;2022-12-18T00:22:53;96670.31;;;-3.06;75.44
70684;BME280;58263;48.146;11.440;2022-12-18T00:25:19;96683.94;;;-3.12;76.01
70684;BME280;58263;48.146;11.440;2022-12-18T00:27:44;96700.41;;;-3.21;76.03
70684;BME280;58263;48.146;11.440;2022-12-18T00:30:10;96688.56;;;-3.15;75.89
70684;BME280;58263;48.146;11.440;2022-12-18T00:32:35;96694.78;;;-3.16;76.24
70684;BME280;58263;48.146;11.440;2022-12-18T00:35:01;96696.56;;;-3.17;76.09
70684;BME280;58263;48.146;11.440;2022-12-18T00:37:26;96709.09;;;-3.20;76.23
70684;BME280;58263;48.146;11.440;2022-12-18T00:39:52;96698.03;;;-3.24;76.57
70684;BME280;58263;48.146;11.440;2022-12-18T00:42:17;96704.44;;;-3.40;77.53
70684;BME280;58263;48.146;11.440;2022-12-18T00:45:01;96700.41;;;-3.21;76.52
70684;BME280;58263;48.146;11.440;2022-12-18T00:47:27;96705.66;;;-3.21;76.61
70684;BME280;58263;48.146;11.440;2022-12-18T00:49:52;96703.03;;;-3.21;76.91
70684;BME280;58263;48.146;11.440;2022-12-18T00:52:17;96707.78;;;-3.26;76.55
70684;BME280;58263;48.146;11.440;2022-12-18T00:54:42;96700.16;;;-3.18;76.46
70684;BME280;58263;48.146;11.440;2022-12-18T00:57:08;96715.75;;;-3.16;76.17
70684;BME280;58263;48.146;11.440;2022-12-18T00:59:33;96725.19;;;-3.14;76.52
70684;BME280;58263;48.146;11.440;2022-12-18T01:01:58;96720.31;;;-3.18;76.50
70684;BME280;58263;48.146;11.440;2022-12-18T01:04:24;96726.75;;;-3.23;76.45
70684;BME280;58263;48.146;11.440;2022-12-18T01:06:49;96730.69;;;-3.28;76.47
70684;BME280;58263;48.146;11.440;2022-12-18T01:09:14;96736.16;;;-3.31;76.56
70684;BME280;58263;48.146;11.440;2022-12-18T01:11:40;96737.84;;;-3.30;76.38
70684;BME280;58263;48.146;11.440;2022-12-18T01:14:05;96734.50;;;-3.32;76.59
70684;BME280;58263;48.146;11.440;2022-12-18T01:16:31;96750.47;;;-3.35;76.93
70684;BME280;58263;48.146;11.440;2022-12-18T01:18:56;96743.94;;;-3.30;76.33
70684;BME280;58263;48.146;11.440;2022-12-18T01:21:23;96746.91;;;-3.34;77.04
70684;BME280;58263;48.146;11.440;2022-12-18T01:23:55;96759.69;;;-3.30;76.54
70684;BME280;58263;48.146;11.440;2022-12-18T01:26:21;96755.72;;;-3.35;76.84
70684;BME280;58263;48.146;11.440;2022-12-18T01:28:46;96759.31;;;-3.36;76.92
70684;BME280;58263;48.146;11.440;2022-12-18T01:31:21;96760.97;;;-3.35;76.82
70684;BME280;58263;48.146;11.440;2022-12-18T01:33:48;96760.97;;;-3.35;76.76
70684;BME280;58263;48.146;11.440;2022-12-18T01:36:15;96769.56;;;-3.33;76.68
70684;BME280;58263;48.146;11.440;2022-12-18T01:38:41;96767.63;;;-3.31;75.90
70684;BME280;58263;48.146;11.440;2022-12-18T01:41:08;96769.69;;;-3.24;75.63
70684;BME280;58263;48.146;11.440;2022-12-18T01:43:54;96769.09;;;-3.27;75.40
70684;BME280;58263;48.146;11.440;2022-12-18T01:46:22;96768.38;;;-3.29;75.38
70684;BME280;58263;48.146;11.440;2022-12-18T01:48:54;96765.88;;;-3.31;75.49
70684;BME280;58263;48.146;11.440;2022-12-18T01:51:20;96769.56;;;-3.33;75.76
70684;BME280;58263;48.146;11.440;2022-12-18T01:53:46;96779.59;;;-3.27;75.59
70684;BME280;58263;48.146;11.440;2022-12-18T01:56:14;96774.56;;;-3.30;75.53
70684;BME280;58263;48.146;11.440;2022-12-18T01:58:58;96760.97;;;-3.35;75.71
70684;BME280;58263;48.146;11.440;2022-12-18T02:01:25;96768.13;;;-3.37;75.52
70684;BME280;58263;48.146;11.440;2022-12-18T02:03:51;96765.03;;;-3.43;75.76
70684;BME280;58263;48.146;11.440;2022-12-18T02:06:26;96765.00;;;-3.54;75.64
70684;BME280;58263;48.146;11.440;2022-12-18T02:09:14;96762.06;;;-3.38;75.17
70684;BME280;58263;48.146;11.440;2022-12-18T02:11:55;96757.16;;;-3.43;75.73
70684;BME280;58263;48.146;11.440;2022-12-18T02:14:50;96750.97;;;-3.42;75.79
70684;BME280;58263;48.146;11.440;2022-12-18T02:17:22;96749.41;;;-3.33;75.47
70684;BME280;58263;48.146;11.440;2022-12-18T02:20:23;96751.91;;;-3.31;75.61
70684;BME280;58263;48.146;11.440;2022-12-18T02:23:01;96752.16;;;-3.34;76.08
70684;BME280;58263;48.146;11.440;2022-12-18T02:28:36;96759.53;;;-3.40;76.17
70684;BME280;58263;48.146;11.440;2022-12-18T02:31:06;96757.38;;;-3.34;75.78
70684;BME280;58263;48.146;11.440;2022-12-18T02:33:34;96756.22;;;-3.42;76.09
70684;BME280;58263;48.146;11.440;2022-12-18T02:36:01;96754.53;;;-3.43;76.05
70684;BME280;58263;48.146;11.440;2022-12-18T02:38:29;96754.66;;;-3.44;76.41
70684;BME280;58263;48.146;11.440;2022-12-18T02:40:56;96751.19;;;-3.45;76.01
70684;BME280;58263;48.146;11.440;2022-12-18T02:43:22;96747.41;;;-3.41;76.19
70684;BME280;58263;48.146;11.440;2022-12-18T02:45:53;96747.28;;;-3.50;76.50
70684;BME280;58263;48.146;11.440;2022-12-18T02:48:24;96751.19;;;-3.45;76.17
70684;BME280;58263;48.146;11.440;2022-12-18T02:51:18;96756.66;;;-3.48;75.89
70684;BME280;58263;48.146;11.440;2022-12-18T02:53:58;96768.13;;;-3.49;76.09
70684;BME280;58263;48.146;11.440;2022-12-18T02:56:38;96761.69;;;-3.45;75.81
70684;BME280;58263;48.146;11.440;2022-12-18T02:59:21;96765.50;;;-3.49;76.03
70684;BME280;58263;48.146;11.440;2022-12-18T03:04:54;96765.63;;;-3.50;76.22
70684;BME280;58263;48.146;11.440;2022-12-18T03:07:30;96755.72;;;-3.58;76.35
70684;BME280;58263;48.146;11.440;2022-12-18T03:10:00;96757.38;;;-3.57;76.34
70684;BME280;58263;48.146;11.440;2022-12-18T03:12:35;96751.66;;;-3.51;76.15
70684;BME280;58263;48.146;11.440;2022-12-18T03:15:22;96748.44;;;-3.54;76.58
70684;BME280;58263;48.146;11.440;2022-12-18T03:17:59;96743.06;;;-3.76;76.87
70684;BME280;58263;48.146;11.440;2022-12-18T03:20:29;96751.91;;;-3.65;76.54
70684;BME280;58263;48.146;11.440;2022-12-18T03:23:01;96756.91;;;-3.62;76.82
70684;BME280;58263;48.146;11.440;2022-12-18T03:25:30;96763.09;;;-3.63;76.89
70684;BME280;58263;48.146;11.440;2022-12-18T03:27:58;96756.66;;;-3.70;77.00
70684;BME280;58263;48.146;11.440;2022-12-18T03:30:28;96755.72;;;-3.58;77.02
70684;BME280;58263;48.146;11.440;2022-12-18T03:33:20;96757.16;;;-3.54;76.92
70684;BME280;58263;48.146;11.440;2022-12-18T03:35:49;96759.88;;;-3.55;76.90
70684;BME280;58263;48.146;11.440;2022-12-18T03:38:15;96758.59;;;-3.50;76.63
70684;BME280;58263;48.146;11.440;2022-12-18T03:40:47;96765.50;;;-3.49;76.37
70684;BME280;58263;48.146;11.440;2022-12-18T03:46:06;96768.47;;;-3.53;76.35
70684;BME280;58263;48.146;11.440;2022-12-18T03:48:39;96768.72;;;-3.45;75.94
70684;BME280;58263;48.146;11.440;2022-12-18T03:51:16;96759.19;;;-3.46;76.09
70684;BME280;58263;48.146;11.440;2022-12-18T03:54:00;96764.66;;;-3.49;76.42
70684;BME280;58263;48.146;11.440;2022-12-18T03:56:29;96759.06;;;-3.45;76.28
70684;BME280;58263;48.146;11.440;2022-12-18T03:58:57;96767.88;;;-3.46;76.44
70684;BME280;58263;48.146;11.440;2022-12-18T04:01:36;96766.56;;;-3.51;76.50
70684;BME280;58263;48.146;11.440;2022-12-18T04:04:04;96765.50;;;-3.49;76.11
70684;BME280;58263;48.146;11.440;2022-12-18T04:06:30;96770.50;;;-3.46;76.14
70684;BME280;58263;48.146;11.440;2022-12-18T04:09:00;96768.13;;;-3.49;76.18
70684;BME280;58263;48.146;11.440;2022-12-18T04:11:26;96760.97;;;-3.35;75.81
70684;BME280;58263;48.146;11.440;2022-12-18T04:13:55;96771.00;;;-3.41;76.12
70684;BME280;58263;48.146;11.440;2022-12-18T04:16:21;96768.38;;;-3.41;76.29
70684;BME280;58263;48.146;11.440;2022-12-18T04:18:46;96780.75;;;-3.43;76.36
70684;BME280;58263;48.146;11.440;2022-12-18T04:21:12;96770.03;;;-3.40;75.96
70684;BME280;58263;48.146;11.440;2022-12-18T04:23:37;96768.50;;;-3.31;76.08
70684;BME280;58263;48.146;11.440;2022-12-18T04:26:02;96766.69;;;-3.30;76.01
70684;BME280;58263;48.146;11.440;2022-12-18T04:28:28;96763.84;;;-3.27;76.11
70684;BME280;58263;48.146;11.440;2022-12-18T04:30:53;96767.06;;;-3.35;76.34
70684;BME280;58263;48.146;11.440;2022-12-18T04:33:18;96769.31;;;-3.30;76.31
70684;BME280;58263;48.146;11.440;2022-12-18T04:35:44;96770.25;;;-3.31;76.13
70684;BME280;58263;48.146;11.440;2022-12-18T04:38:09;96760.75;;;-3.32;76.10
70684;BME280;58263;48.146;11.440;2022-12-18T04:40:36;96769.31;;;-3.30;75.84
70684;BME280;58263;48.146;11.440;2022-12-18T04:43:02;96773.97;;;-3.34;76.10
70684;BME280;58263;48.146;11.440;2022-12-18T04:45:27;96770.75;;;-3.26;75.84
70684;BME280;58263;48.146;11.440;2022-12-18T04:47:52;96785.53;;;-3.36;76.13
70684;BME280;58263;48.146;11.440;2022-12-18T04:50:18;96795.31;;;-3.38;76.02
70684;BME280;58263;48.146;11.440;2022-12-18T04:52:43;96799.97;;;-3.31;75.81
70684;BME280;58263;48.146;11.440;2022-12-18T04:55:08;96802.84;;;-3.34;75.74
70684;BME280;58263;48.146;11.440;2022-12-18T04:57:33;96807.97;;;-3.32;75.80
70684;BME280;58263;48.146;11.440;2022-12-18T04:59:59;96805.56;;;-3.35;75.85
70684;BME280;58263;48.146;11.440;2022-12-18T05:02:24;96814.97;;;-3.33;75.90
70684;BME280;58263;48.146;11.440;2022-12-18T05:04:49;96800.78;;;-3.30;75.49
70684;BME280;58263;48.146;11.440;2022-12-18T05:07:15;96790.19;;;-3.29;75.64
70684;BME280;58263;48.146;11.440;2022-12-18T05:09:40;96796.75;;;-3.34;75.87
70684;BME280;58263;48.146;11.440;2022-12-18T05:12:05;96802.84;;;-3.34;75.77
70684;BME280;58263;48.146;11.440;2022-12-18T05:14:31;96807.59;;;-3.39;75.81
70684;BME280;58263;48.146;11.440;2022-12-18T05:16:56;96812.72;;;-3.37;75.71
70684;BME280;58263;48.146;11.440;2022-12-18T05:19:21;96809.97;;;-3.36;75.63
70684;BME280;58263;48.146;11.440;2022-12-18T05:21:47;96807.22;;;-3.34;75.62
70684;BME280;58263;48.146;11.440;2022-12-18T05:24:12;96810.59;;;-3.32;75.46
70684;BME280;58263;48.146;11.440;2022-12-18T05:26:38;96805.81;;;-3.27;75.32
70684;BME280;58263;48.146;11.440;2022-12-18T05:29:03;96811.78;;;-3.36;75.73
70684;BME280;58263;48.146;11.440;2022-12-18T05:31:28;96815.72;;;-3.31;75.41
70684;BME280;58263;48.146;11.440;2022-12-18T05:33:54;96818.91;;;-3.38;75.31
70684;BME280;58263;48.146;11.440;2022-12-18T05:36:19;96820.34;;;-3.46;75.52
70684;BME280;58263;48.146;11.440;2022-12-18T05:38:45;96821.97;;;-3.56;75.77
70684;BME280;58263;48.146;11.440;2022-12-18T05:41:10;96823.19;;;-3.49;75.72
70684;BME280;58263;48.146;11.440;2022-12-18T05:43:37;96823.41;;;-3.52;75.98
70684;BME280;58263;48.146;11.440;2022-12-18T05:46:05;96815.66;;;-3.53;75.57
70684;BME280;58263;48.146;11.440;2022-12-18T05:48:30;96821.84;;;-3.54;75.79
70684;BME280;58263;48.146;11.440;2022-12-18T05:51:06;96825.06;;;-3.62;75.58
70684;BME280;58263;48.146;11.440;2022-12-18T05:53:32;96821.59;;;-3.63;75.80
70684;BME280;58263;48.146;11.440;2022-12-18T05:56:00;96823.38;;;-3.63;75.86
70684;BME280;58263;48.146;11.440;2022-12-18T05:58:25;96822.56;;;-3.64;75.95
70684;BME280;58263;48.146;11.440;2022-12-18T06:00:51;96828.06;;;-3.55;75.88
70684;BME280;58263;48.146;11.440;2022-12-18T06:03:16;96835.56;;;-3.51;75.84
70684;BME280;58263;48.146;11.440;2022-12-18T06:05:44;96837.38;;;-3.51;75.35
70684;BME280;58263;48.146;11.440;2022-12-18T06:08:10;96833.19;;;-3.54;75.45
70684;BME280;58263;48.146;11.440;2022-12-18T06:10:36;96831.50;;;-3.55;75.31
70684;BME280;58263;48.146;11.440;2022-12-18T06:13:01;96831.13;;;-3.62;75.30
70684;BME280;58263;48.146;11.440;2022-12-18T06:15:27;96825.31;;;-3.54;75.29
70684;BME280;58263;48.146;11.440;2022-12-18T06:17:52;96824.94;;;-3.61;75.77
70684;BME280;58263;48.146;11.440;2022-12-18T06:20:18;96824.25;;;-3.51;75.54
70684;BME280;58263;48.146;11.440;2022-12-18T06:22:43;96836.44;;;-3.50;75.36
70684;BME280;58263;48.146;11.440;2022-12-18T06:25:09;96839.13;;;-3.52;75.32
70684;BME280;58263;48.146;11.440;2022-12-18T06:27:34;96836.44;;;-3.50;75.31
70684;BME280;58263;48.146;11.440;2022-12-18T06:30:00;96839.75;;;-3.48;75.40
70684;BME280;58263;48.146;11.440;2022-12-18T06:32:25;96840.13;;;-3.53;75.51
70684;BME280;58263;48.146;11.440;2022-12-18T06:34:51;96845.25;;;-3.51;75.53
70684;BME280;58263;48.146;11.440;2022-12-18T06:37:17;96852.03;;;-3.49;75.67
70684;BME280;58263;48.146;11.440;2022-12-18T06:39:43;96852.75;;;-3.47;75.48
70684;BME280;58263;48.146;11.440;2022-12-18T06:42:08;96849.88;;;-3.44;77.57
70684;BME280;58263;48.146;11.440;2022-12-18T06:44:34;96851.38;;;-3.28;76.46
70684;BME280;58263;48.146;11.440;2022-12-18T06:46:59;96854.69;;;-3.37;75.65
70684;BME280;58263;48.146;11.440;2022-12-18T06:49:24;96863.50;;;-3.38;75.41
70684;BME280;58263;48.146;11.440;2022-12-18T06:51:49;96861.81;;;-3.51;75.07
70684;BME280;58263;48.146;11.440;2022-12-18T06:54:15;96859.44;;;-3.43;75.18
70684;BME280;58263;48.146;11.440;2022-12-18T06:56:40;96865.75;;;-3.45;74.89
70684;BME280;58263;48.146;11.440;2022-12-18T06:59:05;96874.91;;;-3.51;74.45
70684;BME280;58263;48.146;11.440;2022-12-18T07:01:31;96878.03;;;-3.46;74.42
70684;BME280;58263;48.146;11.440;2022-12-18T07:03:57;96874.78;;;-3.49;74.71
70684;BME280;58263;48.146;11.440;2022-12-18T07:06:24;96883.78;;;-3.41;74.40
70684;BME280;58263;48.146;11.440;2022-12-18T07:08:51;96879.66;;;-3.56;74.65
70684;BME280;58263;48.146;11.440;2022-12-18T07:11:18;96885.59;;;-3.65;74.76
70684;BME280;58263;48.146;11.440;2022-12-18T07:13:44;96888.25;;;-3.54;74.88
70684;BME280;58263;48.146;11.440;2022-12-18T07:16:13;96897.31;;;-3.58;74.75
70684;BME280;58263;48.146;11.440;2022-12-18T07:18:38;96901.59;;;-3.57;74.98
70684;BME280;58263;48.146;11.440;2022-12-18T07:21:22;96902.06;;;-3.52;74.90
70684;BME280;58263;48.146;11.440;2022-12-18T07:23:48;96900.19;;;-3.50;74.56
70684;BME280;58263;48.146;11.440;2022-12-18T07:26:16;96904.81;;;-3.53;74.74
70684;BME280;58263;48.146;11.440;2022-12-18T07:28:42;96908.28;;;-3.53;74.49
70684;BME280;58263;48.146;11.440;2022-12-18T07:31:13;96905.44;;;-3.50;74.57
70684;BME280;58263;48.146;11.440;2022-12-18T07:33:38;96892.81;;;-3.45;74.12
70684;BME280;58263;48.146;11.440;2022-12-18T07:36:05;96892.81;;;-3.45;74.47
70684;BME280;58263;48.146;11.440;2022-12-18T07:38:32;96889.19;;;-3.55;74.85
70684;BME280;58263;48.146;11.440;2022-12-18T07:41:05;96886.13;;;-3.49;74.61
70684;BME280;58263;48.146;11.440;2022-12-18T07:43:31;96891.03;;;-3.44;74.45
70684;BME280;58263;48.146;11.440;2022-12-18T07:45:56;96891.16;;;-3.46;74.64
70684;BME280;58263;48.146;11.440;2022-12-18T07:48:21;96891.38;;;-3.49;74.64
70684;BME280;58263;48.146;11.440;2022-12-18T07:50:47;96896.63;;;-3.49;74.21
70684;BME280;58263;48.146;11.440;2022-12-18T07:53:13;96895.19;;;-3.53;73.75
70684;BME280;58263;48.146;11.440;2022-12-18T07:55:39;96903.06;;;-3.53;73.76
70684;BME280;58263;48.146;11.440;2022-12-18T07:58:06;96902.06;;;-3.52;73.79
70684;BME280;58263;48.146;11.440;2022-12-18T08:00:32;96899.00;;;-3.57;73.61
70684;BME280;58263;48.146;11.440;2022-12-18T08:02:57;96913.66;;;-3.79;74.53
70684;BME280;58263;48.146;11.440;2022-12-18T08:05:23;96914.53;;;-3.67;74.67
70684;BME280;58263;48.146;11.440;2022-12-18T08:07:48;96920.91;;;-3.58;74.95
70684;BME280;58263;48.146;11.440;2022-12-18T08:10:13;96918.50;;;-3.61;74.56
70684;BME280;58263;48.146;11.440;2022-12-18T08:12:39;96921.78;;;-3.46;74.49
70684;BME280;58263;48.146;11.440;2022-12-18T08:15:05;96928.09;;;-3.49;73.90
70684;BME280;58263;48.146;11.440;2022-12-18T08:17:30;96923.28;;;-3.55;73.74
70684;BME280;58263;48.146;11.440;2022-12-18T08:19:55;96933.78;;;-3.55;73.75
70684;BME280;58263;48.146;11.440;2022-12-18T08:22:21;96934.72;;;-3.56;74.05
70684;BME280;58263;48.146;11.440;2022-12-18T08:24:46;96923.41;;;-3.57;74.45
70684;BME280;58263;48.146;11.440;2022-12-18T08:27:11;96926.69;;;-3.66;74.59
70684;BME280;58263;48.146;11.440;2022-12-18T08:29:37;96931.28;;;-3.57;74.42
70684;BME280;58263;48.146;11.440;2022-12-18T08:32:03;96926.84;;;-3.56;74.44
70684;BME280;58263;48.146;11.440;2022-12-18T08:34:28;96927.47;;;-3.52;74.31
70684;BME280;58263;48.146;11.440;2022-12-18T08:36:54;96931.72;;;-3.63;74.40
70684;BME280;58263;48.146;11.440;2022-12-18T08:39:19;96932.81;;;-3.65;74.71
70684;BME280;58263;48.146;11.440;2022-12-18T08:41:44;96935.69;;;-3.57;74.19
70684;BME280;58263;48.146;11.440;2022-12-18T08:44:29;96939.25;;;-3.58;74.09
70684;BME280;58263;48.146;11.440;2022-12-18T08:47:06;96934.06;;;-3.71;74.30
70684;BME280;58263;48.146;11.440;2022-12-18T08:49:32;96938.03;;;-3.65;74.18
70684;BME280;58263;48.146;11.440;2022-12-18T08:51:57;96940.03;;;-3.69;74.76
70684;BME280;58263;48.146;11.440;2022-12-18T08:54:23;96937.06;;;-3.64;74.38
70684;BME280;58263;48.146;11.440;2022-12-18T08:56:49;96942.00;;;-3.60;74.54
70684;BME280;58263;48.146;11.440;2022-12-18T08:59:16;96939.38;;;-3.60;74.03
70684;BME280;58263;48.146;11.440;2022-12-18T09:01:41;96946.78;;;-3.53;74.19
70684;BME280;58263;48.146;11.440;2022-12-18T09:04:08;96941.41;;;-3.52;74.30
70684;BME280;58263;48.146;11.440;2022-12-18T09:06:34;96943.84;;;-3.49;73.96
70684;BME280;58263;48.146;11.440;2022-12-18T09:09:00;96947.63;;;-3.53;73.68
70684;BME280;58263;48.146;11.440;2022-12-18T09:11:26;96948.56;;;-3.54;73.48
70684;BME280;58263;48.146;11.440;2022-12-18T09:13:53;96946.78;;;-3.53;73.48
70684;BME280;58263;48.146;11.440;2022-12-18T09:16:19;96951.91;;;-3.52;73.99
70684;BME280;58263;48.146;11.440;2022-12-18T09:18:45;96950.03;;;-3.50;74.15
70684;BME280;58263;48.146;11.440;2022-12-18T09:21:13;96953.25;;;-3.46;74.00
70684;BME280;58263;48.146;11.440;2022-12-18T09:23:39;96947.03;;;-3.45;73.68
70684;BME280;58263;48.146;11.440;2022-12-18T09:26:04;96941.13;;;-3.60;73.85
70684;BME280;58263;48.146;11.440;2022-12-18T09:28:30;96943.31;;;-3.54;73.85
70684;BME280;58263;48.146;11.440;2022-12-18T09:30:55;96940.25;;;-3.48;74.23
70684;BME280;58263;48.146;11.440;2022-12-18T09:33:20;96937.97;;;-3.77;74.08
70684;BME280;58263;48.146;11.440;2022-12-18T09:35:46;96938.25;;;-3.68;74.63
70684;BME280;58263;48.146;11.440;2022-12-18T09:38:16;96941.75;;;-3.57;74.28
70684;BME280;58263;48.146;11.440;2022-12-18T09:40:59;96937.81;;;-3.62;74.70
70684;BME280;58263;48.146;11.440;2022-12-18T09:43:30;96939.84;;;-3.54;74.41
70684;BME280;58263;48.146;11.440;2022-12-18T09:46:04;96929.72;;;-3.59;74.71
70684;BME280;58263;48.146;11.440;2022-12-18T09:48:35;96933.34;;;-3.49;74.62
70684;BME280;58263;48.146;11.440;2022-12-18T09:51:11;96940.31;;;-3.36;74.46
70684;BME280;58263;48.146;11.440;2022-12-18T09:53:40;96930.75;;;-3.37;74.66
70684;BME280;58263;48.146;11.440;2022-12-18T09:56:12;96939.41;;;-3.48;74.17
70684;BME280;58263;48.146;11.440;2022-12-18T09:58:53;96934.97;;;-3.59;74.08
70684;BME280;58263;48.146;11.440;2022-12-18T10:01:22;96937.28;;;-3.43;74.24
70684;BME280;58263;48.146;11.440;2022-12-18T10:03:48;96933.50;;;-4.12;75.52
70684;BME280;58263;48.146;11.440;2022-12-18T10:14:36;96920.03;;;-3.34;73.66
70684;BME280;58263;48.146;11.440;2022-12-18T10:19:53;96915.84;;;-3.37;74.08
70684;BME280;58263;48.146;11.440;2022-12-18T10:25:14;96911.34;;;-3.24;73.37
70684;BME280;58263;48.146;11.440;2022-12-18T10:27:41;96898.34;;;-3.25;73.26
70684;BME280;58263;48.146;11.440;2022-12-18T10:30:14;96900.53;;;-3.19;73.45
70684;BME280;58263;48.146;11.440;2022-12-18T10:32:40;96897.03;;;-3.19;74.01
70684;BME280;58263;48.146;11.440;2022-12-18T10:35:18;96890.50;;;-3.14;73.27
70684;BME280;58263;48.146;11.440;2022-12-18T10:38:07;96891.94;;;-3.10;73.52
70684;BME280;58263;48.146;11.440;2022-12-18T10:40:51;96889.47;;;-3.00;73.45
70684;BME280;58263;48.146;11.440;2022-12-18T10:43:36;96893.13;;;-3.14;74.02
70684;BME280;58263;48.146;11.440;2022-12-18T10:48:36;96897.03;;;-3.19;72.68
70684;BME280;58263;48.146;11.440;2022-12-18T10:51:05;96903.16;;;-3.19;72.93
70684;BME280;58263;48.146;11.440;2022-12-18T10:53:33;96895.91;;;-3.40;73.25
70684;BME280;58263;48.146;11.440;2022-12-18T10:56:04;96893.09;;;-3.36;73.58
70684;BME280;58263;48.146;11.440;2022-12-18T10:58:34;96892.41;;;-3.16;72.81
70684;BME280;58263;48.146;11.440;2022-12-18T11:01:26;96901.22;;;-3.17;72.28
70684;BME280;58263;48.146;11.440;2022-12-18T11:06:22;96903.66;;;-3.02;73.09
70684;BME280;58263;48.146;11.440;2022-12-18T11:09:04;96908.28;;;-3.06;73.21
70684;BME280;58263;48.146;11.440;2022-12-18T11:11:31;96909.03;;;-2.93;73.13
70684;BME280;58263;48.146;11.440;2022-12-18T11:16:22;96910.69;;;-3.03;72.52
70684;BME280;58263;48.146;11.440;2022-12-18T11:18:48;96922.03;;;-3.02;71.79
70684;BME280;58263;48.146;11.440;2022-12-18T11:21:14;96919.41;;;-3.02;72.56
70684;BME280;58263;48.146;11.440;2022-12-18T11:23:53;96911.28;;;-2.99;72.81
70684;BME280;58263;48.146;11.440;2022-12-18T11:26:18;96908.19;;;-2.93;72.75
70684;BME280;58263;48.146;11.440;2022-12-18T11:29:08;96907.28;;;-2.81;71.78
70684;BME280;58263;48.146;11.440;2022-12-18T11:31:34;96903.53;;;-3.01;72.80
70684;BME280;58263;48.146;11.440;2022-12-18T11:34:48;96900.91;;;-3.01;73.20
70684;BME280;58263;48.146;11.440;2022-12-18T11:36:54;96891.84;;;-2.97;72.98
70684;BME280;58263;48.146;11.440;2022-12-18T11:42:21;96891.16;;;-2.87;72.95
70684;BME280;58263;48.146;11.440;2022-12-18T11:47:45;96887.53;;;-2.86;72.48
70684;BME280;58263;48.146;11.440;2022-12-18T11:50:19;96882.53;;;-2.90;72.05
70684;BME280;58263;48.146;11.440;2022-12-18T11:52:47;96889.81;;;-2.93;71.78
70684;BME280;58263;48.146;11.440;2022-12-18T11:55:15;96885.28;;;-2.91;71.63
70684;BME280;58263;48.146;11.440;2022-12-18T11:57:51;96873.22;;;-2.94;72.28
70684;BME280;58263;48.146;11.440;2022-12-18T12:00:21;96871.44;;;-2.93;72.30
70684;BME280;58263;48.146;11.440;2022-12-18T12:03:08;96879.56;;;-2.96;73.07
70684;BME280;58263;48.146;11.440;2022-12-18T12:19:59;96868.34;;;-2.87;72.02
70684;BME280;58263;48.146;11.440;2022-12-18T12:22:55;96870.97;;;-2.87;72.96
70684;BME280;58263;48.146;11.440;2022-12-18T12:25:47;96864.75;;;-2.75;71.68
70684;BME280;58263;48.146;11.440;2022-12-18T12:31:03;96856.19;;;-2.77;72.20
70684;BME280;58263;48.146;11.440;2022-12-18T12:34:01;96859.06;;;-2.68;72.66
70684;BME280;58263;48.146;11.440;2022-12-18T12:39:19;96860.59;;;-2.77;72.05
70684;BME280;58263;48.146;11.440;2022-12-18T12:41:46;96862.25;;;-2.76;71.87
70684;BME280;58263;48.146;11.440;2022-12-18T12:44:43;96855.00;;;-2.73;71.89
70684;BME280;58263;48.146;11.440;2022-12-18T12:47:24;96856.19;;;-2.77;71.86
70684;BME280;58263;48.146;11.440;2022-12-18T12:49:52;96858.81;;;-2.77;71.73
70684;BME280;58263;48.146;11.440;2022-12-18T12:54:54;96857.34;;;-2.92;71.56
70684;BME280;58263;48.146;11.440;2022-12-18T12:57:41;96863.84;;;-2.85;71.58
70684;BME280;58263;48.146;11.440;2022-12-18T13:00:14;96862.16;;;-2.86;71.82
70684;BME280;58263;48.146;11.440;2022-12-18T13:03:06;96864.16;;;-2.90;71.73
70684;BME280;58263;48.146;11.440;2022-12-18T13:08:04;96859.28;;;-2.83;72.03
70684;BME280;58263;48.146;11.440;2022-12-18T13:15:25;96871.94;;;-2.77;72.22
70684;BME280;58263;48.146;11.440;2022-12-18T13:18:10;96871.78;;;-2.86;72.27
70684;BME280;58263;48.146;11.440;2022-12-18T13:20:40;96875.97;;;-2.84;72.41
70684;BME280;58263;48.146;11.440;2022-12-18T13:31:12;96875.50;;;-2.89;72.68
70684;BME280;58263;48.146;11.440;2022-12-18T13:33:40;96867.41;;;-2.86;72.86
70684;BME280;58263;48.146;11.440;2022-12-18T13:38:39;96870.38;;;-2.91;71.78
70684;BME280;58263;48.146;11.440;2022-12-18T13:46:18;96861.66;;;-3.02;72.48
70684;BME280;58263;48.146;11.440;2022-12-18T13:48:53;96860.19;;;-3.18;72.71
70684;BME280;58263;48.146;11.440;2022-12-18T13:51:21;96856.88;;;-3.09;72.79
70684;BME280;58263;48.146;11.440;2022-12-18T13:54:01;96864.41;;;-3.04;72.88
70684;BME280;58263;48.146;11.440;2022-12-18T13:56:30;96854.50;;;-3.12;73.53
70684;BME280;58263;48.146;11.440;2022-12-18T14:01:58;96857.13;;;-3.12;72.93
70684;BME280;58263;48.146;11.440;2022-12-18T14:04:31;96861.63;;;-3.14;72.61
70684;BME280;58263;48.146;11.440;2022-12-18T14:07:26;96856.28;;;-3.01;72.50
70684;BME280;58263;48.146;11.440;2022-12-18T14:09:58;96865.47;;;-3.07;72.82
70684;BME280;58263;48.146;11.440;2022-12-18T14:12:27;96869.25;;;-3.33;73.18
70684;BME280;58263;48.146;11.440;2022-12-18T14:15:29;96866.81;;;-3.48;73.81
70684;BME280;58263;48.146;11.440;2022-12-18T14:18:00;96862.19;;;-3.44;73.55
70684;BME280;58263;48.146;11.440;2022-12-18T14:20:28;96872.41;;;-3.52;73.54
70684;BME280;58263;48.146;11.440;2022-12-18T14:22:55;96867.03;;;-3.51;73.53
70684;BME280;58263;48.146;11.440;2022-12-18T14:25:28;96870.66;;;-3.41;73.54
70684;BME280;58263;48.146;11.440;2022-12-18T14:33:11;96871.78;;;-3.56;74.51